Fort Robinson, Pennsylvania
Current Conditions -  °F | °C
As of 12:56 AM on Wednesday 28 Jan 2015 (Local Time) from KCXY Reporting Station
Clear Clear  
Wind Chill:   Ceiling: Unl
Heat Index: 21°   Visibility: 10mi
Dew Point:   Wind: 15mph
Humidity: 48%   Direction: 310°NW
Pressure: 30.02"   Gusts: 22mph
Location:  40.3674°N, 77.4381°W
Report Text: KCXY 280556Z AUTO 31013G19KT 10SM CLR M06/M16 A3002 RMK AO2 SLP172 T10611156 11017 21067 51022
Loading
Personal Weather Stations






























Interactive Weather Map New forecast layout! Learn more

10-Day Weather Forecast

Advertisements
Track Severe Weather on mobile